sensor_id;sensor_type;location;lat;lon;timestamp;pressure;altitude;pressure_sealevel;temperature;humidity
5413;BME280;2729;50.056;8.678;2023-04-03T00:00:24;101345.28;;;6.63;100.00
5413;BME280;2729;50.056;8.678;2023-04-03T00:02:50;101347.94;;;6.70;100.00
5413;BME280;2729;50.056;8.678;2023-04-03T00:05:16;101343.56;;;6.63;100.00
5413;BME280;2729;50.056;8.678;2023-04-03T00:07:42;101338.41;;;6.66;100.00
5413;BME280;2729;50.056;8.678;2023-04-03T00:10:08;101345.38;;;6.72;100.00
5413;BME280;2729;50.056;8.678;2023-04-03T00:12:34;101348.69;;;6.56;100.00
5413;BME280;2729;50.056;8.678;2023-04-03T00:15:00;101345.25;;;6.58;100.00
5413;BME280;2729;50.056;8.678;2023-04-03T00:17:26;101345.13;;;6.44;100.00
5413;BME280;2729;50.056;8.678;2023-04-03T00:19:52;101348.84;;;6.75;100.00
5413;BME280;2729;50.056;8.678;2023-04-03T00:22:18;101352.22;;;6.65;100.00
5413;BME280;2729;50.056;8.678;2023-04-03T00:24:43;101354.09;;;6.82;100.00
5413;BME280;2729;50.056;8.678;2023-04-03T00:27:10;101355.91;;;6.92;100.00
5413;BME280;2729;50.056;8.678;2023-04-03T00:29:36;101355.03;;;6.93;100.00
5413;BME280;2729;50.056;8.678;2023-04-03T00:32:02;101355.94;;;6.98;100.00
5413;BME280;2729;50.056;8.678;2023-04-03T00:34:28;101356.75;;;6.92;100.00
5413;BME280;2729;50.056;8.678;2023-04-03T00:36:54;101348.78;;;6.68;100.00
5413;BME280;2729;50.056;8.678;2023-04-03T00:39:20;101354.00;;;6.69;100.00
5413;BME280;2729;50.056;8.678;2023-04-03T00:41:46;101352.13;;;6.55;100.00
5413;BME280;2729;50.056;8.678;2023-04-03T00:46:54;101353.13;;;6.70;100.00
5413;BME280;2729;50.056;8.678;2023-04-03T00:49:20;101350.59;;;6.76;100.00
5413;BME280;2729;50.056;8.678;2023-04-03T00:51:47;101349.66;;;6.68;100.00
5413;BME280;2729;50.056;8.678;2023-04-03T00:54:13;101358.22;;;6.60;100.00
5413;BME280;2729;50.056;8.678;2023-04-03T00:56:39;101358.22;;;6.57;100.00
5413;BME280;2729;50.056;8.678;2023-04-03T00:59:10;101358.22;;;6.60;100.00
5413;BME280;2729;50.056;8.678;2023-04-03T01:01:37;101350.53;;;6.67;100.00
5413;BME280;2729;50.056;8.678;2023-04-03T01:04:05;101353.09;;;6.64;100.00
5413;BME280;2729;50.056;8.678;2023-04-03T01:06:36;101352.91;;;6.44;100.00
5413;BME280;2729;50.056;8.678;2023-04-03T01:09:06;101351.34;;;6.63;100.00
5413;BME280;2729;50.056;8.678;2023-04-03T01:11:32;101346.16;;;6.62;100.00
5413;BME280;2729;50.056;8.678;2023-04-03T01:14:00;101348.75;;;6.63;100.00
5413;BME280;2729;50.056;8.678;2023-04-03T01:16:27;101346.88;;;6.45;100.00
5413;BME280;2729;50.056;8.678;2023-04-03T01:18:59;101352.19;;;6.62;100.00
5413;BME280;2729;50.056;8.678;2023-04-03T01:24:34;101353.00;;;6.54;100.00
5413;BME280;2729;50.056;8.678;2023-04-03T01:27:06;101348.78;;;6.65;100.00
5413;BME280;2729;50.056;8.678;2023-04-03T01:29:33;101346.09;;;6.54;100.00
5413;BME280;2729;50.056;8.678;2023-04-03T01:32:01;101351.94;;;6.35;100.00
5413;BME280;2729;50.056;8.678;2023-04-03T01:34:28;101341.78;;;6.56;100.00
5413;BME280;2729;50.056;8.678;2023-04-03T01:36:58;101339.19;;;6.58;100.00
5413;BME280;2729;50.056;8.678;2023-04-03T01:39:24;101342.69;;;6.63;100.00
5413;BME280;2729;50.056;8.678;2023-04-03T01:41:51;101342.53;;;6.44;100.00
5413;BME280;2729;50.056;8.678;2023-04-03T01:44:23;101349.66;;;6.67;100.00
5413;BME280;2729;50.056;8.678;2023-04-03T01:46:49;101347.88;;;6.63;100.00
5413;BME280;2729;50.056;8.678;2023-04-03T01:49:15;101352.19;;;6.62;100.00
5413;BME280;2729;50.056;8.678;2023-04-03T01:51:41;101343.66;;;6.74;100.00
5413;BME280;2729;50.056;8.678;2023-04-03T01:54:07;101352.28;;;6.73;100.00
5413;BME280;2729;50.056;8.678;2023-04-03T01:56:33;101354.16;;;6.91;100.00
5413;BME280;2729;50.056;8.678;2023-04-03T01:58:59;101362.84;;;6.97;100.00
5413;BME280;2729;50.056;8.678;2023-04-03T02:01:25;101358.50;;;6.93;100.00
5413;BME280;2729;50.056;8.678;2023-04-03T02:03:51;101360.28;;;6.99;100.00
5413;BME280;2729;50.056;8.678;2023-04-03T02:06:17;101362.06;;;7.06;100.00
5413;BME280;2729;50.056;8.678;2023-04-03T02:08:43;101362.09;;;7.12;100.00
5413;BME280;2729;50.056;8.678;2023-04-03T02:11:09;101367.28;;;7.09;100.00
5413;BME280;2729;50.056;8.678;2023-04-03T02:13:35;101371.56;;;7.05;100.00
5413;BME280;2729;50.056;8.678;2023-04-03T02:16:09;101365.28;;;6.74;100.00
5413;BME280;2729;50.056;8.678;2023-04-03T02:18:35;101366.19;;;6.80;100.00
5413;BME280;2729;50.056;8.678;2023-04-03T02:21:01;101361.78;;;6.71;100.00
5413;BME280;2729;50.056;8.678;2023-04-03T02:23:27;101359.19;;;6.71;100.00
5413;BME280;2729;50.056;8.678;2023-04-03T02:26:02;101363.50;;;6.70;100.00
5413;BME280;2729;50.056;8.678;2023-04-03T02:28:28;101363.56;;;6.75;100.00
5413;BME280;2729;50.056;8.678;2023-04-03T02:30:55;101357.38;;;6.59;100.00
5413;BME280;2729;50.056;8.678;2023-04-03T02:33:21;101357.53;;;6.79;100.00
5413;BME280;2729;50.056;8.678;2023-04-03T02:35:52;101360.09;;;6.76;100.00
5413;BME280;2729;50.056;8.678;2023-04-03T02:38:20;101364.41;;;6.75;100.00
5413;BME280;2729;50.056;8.678;2023-04-03T02:40:46;101360.97;;;6.75;100.00
5413;BME280;2729;50.056;8.678;2023-04-03T02:43:12;101363.53;;;6.73;100.00
5413;BME280;2729;50.056;8.678;2023-04-03T02:45:38;101359.13;;;6.63;100.00
5413;BME280;2729;50.056;8.678;2023-04-03T02:48:04;101364.88;;;6.32;100.00
5413;BME280;2729;50.056;8.678;2023-04-03T02:50:30;101360.59;;;6.35;100.00
5413;BME280;2729;50.056;8.678;2023-04-03T02:52:56;101361.47;;;6.34;100.00
5413;BME280;2729;50.056;8.678;2023-04-03T02:55:22;101360.88;;;6.66;100.00
5413;BME280;2729;50.056;8.678;2023-04-03T02:57:50;101360.69;;;6.44;100.00
5413;BME280;2729;50.056;8.678;2023-04-03T03:00:16;101357.38;;;6.62;100.00
5413;BME280;2729;50.056;8.678;2023-04-03T03:02:42;101355.63;;;6.57;100.00
5413;BME280;2729;50.056;8.678;2023-04-03T03:05:08;101359.06;;;6.54;100.00
5413;BME280;2729;50.056;8.678;2023-04-03T03:07:34;101356.47;;;6.56;100.00
5413;BME280;2729;50.056;8.678;2023-04-03T03:10:00;101362.38;;;6.41;100.00
5413;BME280;2729;50.056;8.678;2023-04-03T03:12:26;101365.78;;;6.34;100.00
5413;BME280;2729;50.056;8.678;2023-04-03T03:14:52;101355.53;;;6.48;100.00
5413;BME280;2729;50.056;8.678;2023-04-03T03:17:18;101358.72;;;6.21;100.00
5413;BME280;2729;50.056;8.678;2023-04-03T03:19:44;101361.50;;;6.40;100.00
5413;BME280;2729;50.056;8.678;2023-04-03T03:22:11;101361.63;;;6.54;100.00
5413;BME280;2729;50.056;8.678;2023-04-03T03:24:37;101361.66;;;6.57;100.00
5413;BME280;2729;50.056;8.678;2023-04-03T03:27:03;101358.13;;;6.48;100.00
5413;BME280;2729;50.056;8.678;2023-04-03T03:29:29;101364.06;;;6.36;100.00
5413;BME280;2729;50.056;8.678;2023-04-03T03:31:55;101361.47;;;6.37;100.00
5413;BME280;2729;50.056;8.678;2023-04-03T03:34:21;101352.78;;;6.31;100.00
5413;BME280;2729;50.056;8.678;2023-04-03T03:36:47;101352.69;;;6.22;100.00
5413;BME280;2729;50.056;8.678;2023-04-03T03:39:13;101349.94;;;6.08;100.00
5413;BME280;2729;50.056;8.678;2023-04-03T03:41:39;101355.16;;;6.11;100.00
5413;BME280;2729;50.056;8.678;2023-04-03T03:44:05;101366.53;;;6.24;100.00
5413;BME280;2729;50.056;8.678;2023-04-03T03:46:32;101356.97;;;6.17;100.00
5413;BME280;2729;50.056;8.678;2023-04-03T03:48:58;101361.28;;;6.16;100.00
5413;BME280;2729;50.056;8.678;2023-04-03T03:51:24;101363.91;;;6.21;100.00
5413;BME280;2729;50.056;8.678;2023-04-03T03:53:51;101368.84;;;5.99;100.00
5413;BME280;2729;50.056;8.678;2023-04-03T03:56:18;101360.34;;;6.09;100.00
5413;BME280;2729;50.056;8.678;2023-04-03T03:58:46;101373.28;;;6.08;100.00
5413;BME280;2729;50.056;8.678;2023-04-03T04:01:12;101371.50;;;6.04;100.00
5413;BME280;2729;50.056;8.678;2023-04-03T04:03:42;101372.09;;;5.83;100.00
5413;BME280;2729;50.056;8.678;2023-04-03T04:06:12;101371.97;;;5.74;100.00
5413;BME280;2729;50.056;8.678;2023-04-03T04:08:37;101375.47;;;5.76;100.00
5413;BME280;2729;50.056;8.678;2023-04-03T04:11:06;101376.53;;;5.90;100.00
5413;BME280;2729;50.056;8.678;2023-04-03T04:13:33;101379.97;;;5.91;100.00
5413;BME280;2729;50.056;8.678;2023-04-03T04:16:00;101378.34;;;5.97;100.00
5413;BME280;2729;50.056;8.678;2023-04-03T04:18:26;101376.16;;;5.64;100.00
5413;BME280;2729;50.056;8.678;2023-04-03T04:20:52;101375.38;;;5.70;100.00
5413;BME280;2729;50.056;8.678;2023-04-03T04:23:18;101375.34;;;5.68;100.00
5413;BME280;2729;50.056;8.678;2023-04-03T04:25:46;101379.66;;;5.68;100.00
5413;BME280;2729;50.056;8.678;2023-04-03T04:28:13;101364.19;;;5.72;100.00
5413;BME280;2729;50.056;8.678;2023-04-03T04:30:40;101373.38;;;5.49;100.00
5413;BME280;2729;50.056;8.678;2023-04-03T04:33:06;101375.53;;;5.82;100.00
5413;BME280;2729;50.056;8.678;2023-04-03T04:35:34;101378.59;;;5.52;100.00
5413;BME280;2729;50.056;8.678;2023-04-03T04:38:01;101373.31;;;5.44;100.00
5413;BME280;2729;50.056;8.678;2023-04-03T04:40:28;101377.06;;;5.66;100.00
5413;BME280;2729;50.056;8.678;2023-04-03T04:42:54;101373.53;;;5.60;100.00
5413;BME280;2729;50.056;8.678;2023-04-03T04:45:21;101379.38;;;5.45;100.00
5413;BME280;2729;50.056;8.678;2023-04-03T04:47:47;101381.47;;;5.14;100.00
5413;BME280;2729;50.056;8.678;2023-04-03T04:50:14;101389.69;;;5.43;100.00
5413;BME280;2729;50.056;8.678;2023-04-03T04:52:40;101385.50;;;5.52;100.00
5413;BME280;2729;50.056;8.678;2023-04-03T04:55:07;101388.06;;;5.50;100.00
5413;BME280;2729;50.056;8.678;2023-04-03T04:57:33;101381.59;;;5.21;100.00
5413;BME280;2729;50.056;8.678;2023-04-03T05:00:00;101384.13;;;5.17;100.00
5413;BME280;2729;50.056;8.678;2023-04-03T05:02:26;101389.63;;;5.39;100.00
5413;BME280;2729;50.056;8.678;2023-04-03T05:04:54;101387.19;;;5.49;100.00
5413;BME280;2729;50.056;8.678;2023-04-03T05:07:25;101388.91;;;5.47;100.00
5413;BME280;2729;50.056;8.678;2023-04-03T05:09:51;101401.63;;;5.34;100.00
5413;BME280;2729;50.056;8.678;2023-04-03T05:12:17;101393.59;;;5.17;100.00
5413;BME280;2729;50.056;8.678;2023-04-03T05:14:49;101400.88;;;5.41;100.00
5413;BME280;2729;50.056;8.678;2023-04-03T05:17:16;101400.00;;;5.40;100.00
5413;BME280;2729;50.056;8.678;2023-04-03T05:19:46;101402.06;;;5.64;100.00
5413;BME280;2729;50.056;8.678;2023-04-03T05:22:13;101409.44;;;5.35;100.00
5413;BME280;2729;50.056;8.678;2023-04-03T05:24:39;101413.28;;;5.07;100.00
5413;BME280;2729;50.056;8.678;2023-04-03T05:27:06;101418.06;;;5.36;100.00
5413;BME280;2729;50.056;8.678;2023-04-03T05:29:36;101418.47;;;5.07;100.00
5413;BME280;2729;50.056;8.678;2023-04-03T05:32:03;101423.56;;;5.03;100.00
5413;BME280;2729;50.056;8.678;2023-04-03T05:34:30;101421.22;;;5.20;100.00
5413;BME280;2729;50.056;8.678;2023-04-03T05:36:56;101421.44;;;5.30;100.00
5413;BME280;2729;50.056;8.678;2023-04-03T05:39:22;101430.78;;;5.21;100.00
5413;BME280;2729;50.056;8.678;2023-04-03T05:41:49;101426.72;;;5.38;100.00
5413;BME280;2729;50.056;8.678;2023-04-03T05:44:15;101434.03;;;5.10;100.00
5413;BME280;2729;50.056;8.678;2023-04-03T05:46:43;101431.06;;;5.40;100.00
5413;BME280;2729;50.056;8.678;2023-04-03T05:49:10;101443.19;;;4.90;100.00
5413;BME280;2729;50.056;8.678;2023-04-03T05:51:38;101441.34;;;5.36;100.00
5413;BME280;2729;50.056;8.678;2023-04-03T05:54:16;101447.59;;;4.97;100.00
5413;BME280;2729;50.056;8.678;2023-04-03T05:56:43;101448.22;;;5.34;100.00
5413;BME280;2729;50.056;8.678;2023-04-03T05:59:09;101452.25;;;5.18;100.00
5413;BME280;2729;50.056;8.678;2023-04-03T06:01:36;101458.66;;;4.89;100.00
5413;BME280;2729;50.056;8.678;2023-04-03T06:04:03;101453.84;;;5.10;100.00
5413;BME280;2729;50.056;8.678;2023-04-03T06:06:51;101464.50;;;5.27;100.00
5413;BME280;2729;50.056;8.678;2023-04-03T06:09:19;101463.19;;;5.00;100.00
5413;BME280;2729;50.056;8.678;2023-04-03T06:11:46;101465.28;;;5.21;100.00
5413;BME280;2729;50.056;8.678;2023-04-03T06:14:12;101467.38;;;4.94;100.00
5413;BME280;2729;50.056;8.678;2023-04-03T06:16:38;101468.13;;;4.87;100.00
5413;BME280;2729;50.056;8.678;2023-04-03T06:19:07;101470.50;;;5.24;100.00
5413;BME280;2729;50.056;8.678;2023-04-03T06:21:35;101470.88;;;5.48;100.00
5413;BME280;2729;50.056;8.678;2023-04-03T06:24:03;101483.41;;;5.21;100.00
5413;BME280;2729;50.056;8.678;2023-04-03T06:26:29;101484.97;;;5.14;100.00
5413;BME280;2729;50.056;8.678;2023-04-03T06:28:55;101483.19;;;5.10;100.00
5413;BME280;2729;50.056;8.678;2023-04-03T06:31:22;101484.34;;;5.26;100.00
5413;BME280;2729;50.056;8.678;2023-04-03T06:33:48;101489.88;;;4.98;100.00
5413;BME280;2729;50.056;8.678;2023-04-03T06:36:13;101486.84;;;5.22;100.00
5413;BME280;2729;50.056;8.678;2023-04-03T06:38:39;101487.41;;;5.05;100.00
5413;BME280;2729;50.056;8.678;2023-04-03T06:41:05;101499.06;;;5.30;100.00
5413;BME280;2729;50.056;8.678;2023-04-03T06:43:31;101496.50;;;5.30;100.00
5413;BME280;2729;50.056;8.678;2023-04-03T06:45:57;101495.47;;;5.21;100.00
5413;BME280;2729;50.056;8.678;2023-04-03T06:48:23;101499.63;;;5.12;100.00
5413;BME280;2729;50.056;8.678;2023-04-03T06:50:49;101501.63;;;5.27;100.00
5413;BME280;2729;50.056;8.678;2023-04-03T06:53:15;101512.97;;;4.87;100.00
5413;BME280;2729;50.056;8.678;2023-04-03T06:55:41;101513.59;;;5.22;100.00
5413;BME280;2729;50.056;8.678;2023-04-03T06:58:07;101503.34;;;4.80;100.00
5413;BME280;2729;50.056;8.678;2023-04-03T07:00:33;101502.97;;;5.07;100.00
5413;BME280;2729;50.056;8.678;2023-04-03T07:02:59;101503.72;;;5.01;100.00
5413;BME280;2729;50.056;8.678;2023-04-03T07:05:25;101516.59;;;5.46;100.00
5413;BME280;2729;50.056;8.678;2023-04-03T07:07:52;101505.34;;;5.44;100.00
5413;BME280;2729;50.056;8.678;2023-04-03T07:10:18;101519.88;;;5.36;100.00
5413;BME280;2729;50.056;8.678;2023-04-03T07:12:44;101514.47;;;5.23;100.00
5413;BME280;2729;50.056;8.678;2023-04-03T07:15:11;101519.97;;;5.41;100.00
5413;BME280;2729;50.056;8.678;2023-04-03T07:17:38;101525.91;;;5.35;100.00
5413;BME280;2729;50.056;8.678;2023-04-03T07:20:05;101529.75;;;5.60;100.00
5413;BME280;2729;50.056;8.678;2023-04-03T07:22:31;101524.63;;;5.63;100.00
5413;BME280;2729;50.056;8.678;2023-04-03T07:24:57;101524.56;;;5.59;100.00
5413;BME280;2729;50.056;8.678;2023-04-03T07:27:25;101531.47;;;5.60;100.00
5413;BME280;2729;50.056;8.678;2023-04-03T07:29:51;101530.69;;;5.64;100.00
5413;BME280;2729;50.056;8.678;2023-04-03T07:32:17;101531.22;;;5.44;100.00
5413;BME280;2729;50.056;8.678;2023-04-03T07:34:44;101533.63;;;5.88;100.00
5413;BME280;2729;50.056;8.678;2023-04-03T07:37:10;101536.13;;;5.82;100.00
5413;BME280;2729;50.056;8.678;2023-04-03T07:39:36;101537.69;;;5.71;100.00
5413;BME280;2729;50.056;8.678;2023-04-03T07:42:02;101542.91;;;5.74;100.00
5413;BME280;2729;50.056;8.678;2023-04-03T07:44:28;101540.13;;;6.18;100.00
5413;BME280;2729;50.056;8.678;2023-04-03T07:46:54;101542.63;;;6.11;100.00
5413;BME280;2729;50.056;8.678;2023-04-03T07:49:23;101548.53;;;6.01;100.00
5413;BME280;2729;50.056;8.678;2023-04-03T07:51:50;101543.28;;;5.95;99.74
5413;BME280;2729;50.056;8.678;2023-04-03T07:54:17;101548.59;;;6.04;99.01
5413;BME280;2729;50.056;8.678;2023-04-03T07:56:43;101536.88;;;6.34;100.00
5413;BME280;2729;50.056;8.678;2023-04-03T07:59:10;101532.50;;;6.30;97.79
5413;BME280;2729;50.056;8.678;2023-04-03T08:01:37;101547.13;;;6.23;97.24
5413;BME280;2729;50.056;8.678;2023-04-03T08:04:03;101536.75;;;6.25;95.70
5413;BME280;2729;50.056;8.678;2023-04-03T08:06:30;101544.06;;;6.55;91.77
5413;BME280;2729;50.056;8.678;2023-04-03T08:08:58;101546.25;;;6.23;92.01
5413;BME280;2729;50.056;8.678;2023-04-03T08:11:24;101542.25;;;6.49;93.24
5413;BME280;2729;50.056;8.678;2023-04-03T08:13:52;101538.66;;;6.38;90.85
5413;BME280;2729;50.056;8.678;2023-04-03T08:16:20;101543.31;;;6.66;91.21
5413;BME280;2729;50.056;8.678;2023-04-03T08:18:48;101543.41;;;6.74;90.79
5413;BME280;2729;50.056;8.678;2023-04-03T08:21:14;101535.63;;;6.74;91.21
5413;BME280;2729;50.056;8.678;2023-04-03T08:23:41;101543.63;;;6.94;92.18
5413;BME280;2729;50.056;8.678;2023-04-03T08:26:15;101548.81;;;6.92;89.62
5413;BME280;2729;50.056;8.678;2023-04-03T08:28:41;101544.34;;;6.81;87.19
5413;BME280;2729;50.056;8.678;2023-04-03T08:31:13;101540.91;;;6.82;87.93
5413;BME280;2729;50.056;8.678;2023-04-03T08:33:40;101541.59;;;6.67;82.63
5413;BME280;2729;50.056;8.678;2023-04-03T08:36:16;101533.34;;;7.04;83.25
5413;BME280;2729;50.056;8.678;2023-04-03T08:38:43;101532.66;;;7.24;82.91
5413;BME280;2729;50.056;8.678;2023-04-03T08:43:58;101533.63;;;7.35;79.13
5413;BME280;2729;50.056;8.678;2023-04-03T08:49:13;101526.66;;;7.28;79.68
5413;BME280;2729;50.056;8.678;2023-04-03T08:51:46;101541.53;;;7.47;81.05
5413;BME280;2729;50.056;8.678;2023-04-03T08:54:24;101538.72;;;7.23;79.74
5413;BME280;2729;50.056;8.678;2023-04-03T08:56:53;101535.31;;;7.30;77.31
5413;BME280;2729;50.056;8.678;2023-04-03T08:59:26;101526.66;;;7.29;77.77
5413;BME280;2729;50.056;8.678;2023-04-03T09:01:53;101522.53;;;7.56;76.20
5413;BME280;2729;50.056;8.678;2023-04-03T09:04:19;101523.66;;;7.85;77.50
5413;BME280;2729;50.056;8.678;2023-04-03T09:06:50;101533.81;;;7.56;75.41
5413;BME280;2729;50.056;8.678;2023-04-03T09:15:03;101537.66;;;7.02;73.16
5413;BME280;2729;50.056;8.678;2023-04-03T09:17:36;101535.00;;;6.98;74.03
5413;BME280;2729;50.056;8.678;2023-04-03T09:20:28;101547.13;;;6.99;75.21
5413;BME280;2729;50.056;8.678;2023-04-03T09:22:57;101544.53;;;6.99;75.87
5413;BME280;2729;50.056;8.678;2023-04-03T09:25:25;101540.66;;;7.45;74.70
5413;BME280;2729;50.056;8.678;2023-04-03T09:27:52;101539.84;;;7.54;73.88
5413;BME280;2729;50.056;8.678;2023-04-03T09:30:22;101538.16;;;7.59;75.04
5413;BME280;2729;50.056;8.678;2023-04-03T09:32:51;101533.88;;;7.65;73.67
5413;BME280;2729;50.056;8.678;2023-04-03T09:35:28;101528.22;;;8.27;76.90
5413;BME280;2729;50.056;8.678;2023-04-03T09:38:16;101521.34;;;8.35;71.03
5413;BME280;2729;50.056;8.678;2023-04-03T09:40:44;101524.59;;;8.01;71.74
5413;BME280;2729;50.056;8.678;2023-04-03T09:45:44;101535.41;;;7.40;75.83
5413;BME280;2729;50.056;8.678;2023-04-03T09:51:01;101523.53;;;7.71;75.85
5413;BME280;2729;50.056;8.678;2023-04-03T09:56:03;101521.09;;;7.93;70.87
5413;BME280;2729;50.056;8.678;2023-04-03T09:58:33;101519.59;;;8.34;73.13
5413;BME280;2729;50.056;8.678;2023-04-03T10:01:03;101517.03;;;8.37;69.93
5413;BME280;2729;50.056;8.678;2023-04-03T10:03:32;101530.03;;;8.37;68.63
5413;BME280;2729;50.056;8.678;2023-04-03T10:05:58;101519.28;;;7.81;69.72
5413;BME280;2729;50.056;8.678;2023-04-03T10:08:34;101527.81;;;7.66;70.79
5413;BME280;2729;50.056;8.678;2023-04-03T10:11:12;101524.56;;;7.92;nan
5413;BME280;2729;50.056;8.678;2023-04-03T10:13:56;101527.50;;;8.57;70.05
5413;BME280;2729;50.056;8.678;2023-04-03T10:19:45;101513.47;;;8.23;68.77
5413;BME280;2729;50.056;8.678;2023-04-03T10:22:37;101516.09;;;8.31;70.67
5413;BME280;2729;50.056;8.678;2023-04-03T10:25:20;101504.94;;;8.53;68.27
5413;BME280;2729;50.056;8.678;2023-04-03T10:27:55;101492.84;;;8.75;67.59
5413;BME280;2729;50.056;8.678;2023-04-03T10:30:58;101502.28;;;8.38;64.89
5413;BME280;2729;50.056;8.678;2023-04-03T10:33:53;101498.03;;;8.61;66.83
5413;BME280;2729;50.056;8.678;2023-04-03T10:36:43;101494.63;;;9.13;64.60
5413;BME280;2729;50.056;8.678;2023-04-03T10:42:13;101516.16;;;8.42;65.22
5413;BME280;2729;50.056;8.678;2023-04-03T10:47:51;101491.16;;;9.09;64.82
5413;BME280;2729;50.056;8.678;2023-04-03T10:58:54;101487.63;;;8.74;59.99
5413;BME280;2729;50.056;8.678;2023-04-03T11:01:31;101491.13;;;8.82;61.00
5413;BME280;2729;50.056;8.678;2023-04-03T11:04:00;101488.50;;;8.71;60.07
5413;BME280;2729;50.056;8.678;2023-04-03T11:06:35;101487.69;;;8.98;58.70
5413;BME280;2729;50.056;8.678;2023-04-03T11:09:31;101488.53;;;8.88;60.06
5413;BME280;2729;50.056;8.678;2023-04-03T11:12:06;101479.88;;;8.99;58.20
5413;BME280;2729;50.056;8.678;2023-04-03T11:14:37;101478.13;;;9.64;56.70
5413;BME280;2729;50.056;8.678;2023-04-03T11:17:11;101466.84;;;9.51;54.26
5413;BME280;2729;50.056;8.678;2023-04-03T11:22:41;101465.13;;;9.09;54.65
5413;BME280;2729;50.056;8.678;2023-04-03T11:27:41;101467.69;;;9.55;54.97
5413;BME280;2729;50.056;8.678;2023-04-03T11:30:15;101458.16;;;9.54;53.67
5413;BME280;2729;50.056;8.678;2023-04-03T11:32:59;101452.09;;;9.27;52.94
5413;BME280;2729;50.056;8.678;2023-04-03T11:35:29;101447.72;;;9.55;50.96
5413;BME280;2729;50.056;8.678;2023-04-03T11:37:56;101449.47;;;9.53;50.57
5413;BME280;2729;50.056;8.678;2023-04-03T11:40:26;101444.25;;;9.46;51.23
5413;BME280;2729;50.056;8.678;2023-04-03T11:43:15;101447.72;;;9.46;50.13
5413;BME280;2729;50.056;8.678;2023-04-03T11:45:52;101432.03;;;9.74;52.23
5413;BME280;2729;50.056;8.678;2023-04-03T11:50:52;101450.16;;;10.07;50.37
5413;BME280;2729;50.056;8.678;2023-04-03T11:53:27;101441.50;;;10.04;48.17
5413;BME280;2729;50.056;8.678;2023-04-03T11:55:59;101452.78;;;10.09;48.77
5413;BME280;2729;50.056;8.678;2023-04-03T11:58:28;101444.06;;;10.10;48.64
5413;BME280;2729;50.056;8.678;2023-04-03T12:00:56;101426.84;;;9.60;47.31
5413;BME280;2729;50.056;8.678;2023-04-03T12:05:50;101439.69;;;10.27;49.57
5413;BME280;2729;50.056;8.678;2023-04-03T12:16:26;101430.13;;;10.15;48.09
5413;BME280;2729;50.056;8.678;2023-04-03T12:26:48;101419.84;;;9.83;48.00
5413;BME280;2729;50.056;8.678;2023-04-03T12:29:27;101411.09;;;9.95;47.70
5413;BME280;2729;50.056;8.678;2023-04-03T12:35:05;101408.50;;;9.93;47.80
5413;BME280;2729;50.056;8.678;2023-04-03T12:38:14;101413.53;;;10.45;47.15
5413;BME280;2729;50.056;8.678;2023-04-03T12:46:24;101391.06;;;10.08;46.52
5413;BME280;2729;50.056;8.678;2023-04-03T12:48:57;101410.09;;;10.28;45.83
5413;BME280;2729;50.056;8.678;2023-04-03T12:51:34;101398.84;;;10.14;46.09
5413;BME280;2729;50.056;8.678;2023-04-03T12:54:16;101403.28;;;9.93;46.43
5413;BME280;2729;50.056;8.678;2023-04-03T12:56:43;101397.19;;;9.97;45.96
5413;BME280;2729;50.056;8.678;2023-04-03T12:59:22;101388.28;;;10.40;45.48
5413;BME280;2729;50.056;8.678;2023-04-03T13:01:59;101386.22;;;10.89;46.76
5413;BME280;2729;50.056;8.678;2023-04-03T13:04:31;101387.66;;;9.87;45.00
5413;BME280;2729;50.056;8.678;2023-04-03T13:06:57;101394.34;;;10.49;46.52
5413;BME280;2729;50.056;8.678;2023-04-03T13:09:29;101382.19;;;10.45;45.30
5413;BME280;2729;50.056;8.678;2023-04-03T13:12:15;101399.38;;;10.78;45.41
5413;BME280;2729;50.056;8.678;2023-04-03T13:14:52;101378.75;;;10.40;44.93
5413;BME280;2729;50.056;8.678;2023-04-03T13:17:18;101380.97;;;10.92;46.87
5413;BME280;2729;50.056;8.678;2023-04-03T13:19:45;101388.16;;;10.64;44.23
5413;BME280;2729;50.056;8.678;2023-04-03T13:22:38;101380.31;;;10.66;43.94
5413;BME280;2729;50.056;8.678;2023-04-03T13:25:11;101385.34;;;10.90;45.26
5413;BME280;2729;50.056;8.678;2023-04-03T13:27:39;101385.41;;;10.81;43.35
5413;BME280;2729;50.056;8.678;2023-04-03T13:30:38;101386.25;;;10.84;44.81
5413;BME280;2729;50.056;8.678;2023-04-03T13:33:19;101381.09;;;10.77;45.18
5413;BME280;2729;50.056;8.678;2023-04-03T13:35:54;101396.19;;;10.30;45.31
5413;BME280;2729;50.056;8.678;2023-04-03T13:38:25;101378.81;;;10.23;43.02
5413;BME280;2729;50.056;8.678;2023-04-03T13:40:53;101387.13;;;10.83;44.62
5413;BME280;2729;50.056;8.678;2023-04-03T13:43:24;101392.31;;;10.91;45.94
5413;BME280;2729;50.056;8.678;2023-04-03T13:48:45;101380.59;;;11.32;46.55
5413;BME280;2729;50.056;8.678;2023-04-03T13:54:18;101361.22;;;10.59;43.48
5413;BME280;2729;50.056;8.678;2023-04-03T13:56:44;101354.25;;;10.59;42.30
5413;BME280;2729;50.056;8.678;2023-04-03T14:07:03;101355.13;;;10.61;43.55
5413;BME280;2729;50.056;8.678;2023-04-03T14:09:29;101352.66;;;10.36;43.25
5413;BME280;2729;50.056;8.678;2023-04-03T14:12:00;101349.78;;;10.74;43.64
5413;BME280;2729;50.056;8.678;2023-04-03T14:14:32;101351.56;;;10.69;44.01
5413;BME280;2729;50.056;8.678;2023-04-03T14:17:01;101363.53;;;10.94;44.51
5413;BME280;2729;50.056;8.678;2023-04-03T14:19:33;101361.00;;;10.85;43.31
5413;BME280;2729;50.056;8.678;2023-04-03T14:22:06;101348.94;;;10.70;43.28
5413;BME280;2729;50.056;8.678;2023-04-03T14:24:32;101350.31;;;11.12;43.24
5413;BME280;2729;50.056;8.678;2023-04-03T14:26:58;101347.19;;;10.74;42.45
5413;BME280;2729;50.056;8.678;2023-04-03T14:29:25;101349.81;;;10.71;44.50
5413;BME280;2729;50.056;8.678;2023-04-03T14:31:51;101347.50;;;10.28;43.88
5413;BME280;2729;50.056;8.678;2023-04-03T14:34:17;101346.50;;;10.49;44.01
5413;BME280;2729;50.056;8.678;2023-04-03T14:36:44;101336.94;;;10.49;43.05
5413;BME280;2729;50.056;8.678;2023-04-03T14:39:16;101342.63;;;10.95;45.00
5413;BME280;2729;50.056;8.678;2023-04-03T14:41:43;101331.75;;;10.39;43.12
5413;BME280;2729;50.056;8.678;2023-04-03T14:44:09;101338.44;;;10.78;43.16
5413;BME280;2729;50.056;8.678;2023-04-03T14:46:36;101343.66;;;10.78;44.63
5413;BME280;2729;50.056;8.678;2023-04-03T14:49:05;101342.03;;;10.63;43.02
5413;BME280;2729;50.056;8.678;2023-04-03T14:51:38;101335.97;;;10.62;43.61
5413;BME280;2729;50.056;8.678;2023-04-03T14:54:05;101342.84;;;10.73;43.33
5413;BME280;2729;50.056;8.678;2023-04-03T14:56:36;101335.03;;;10.70;44.25